createdAt,value
2018-04-20T00:00:58.559Z,71.86
2018-04-20T00:01:58.505Z,72.43
2018-04-20T00:02:58.434Z,72.05
2018-04-20T00:03:58.377Z,71.95
2018-04-20T00:04:58.319Z,72.05
2018-04-20T00:05:58.256Z,72.43
2018-04-20T00:06:58.203Z,72.63
2018-04-20T00:07:58.134Z,72.43
2018-04-20T00:08:58.083Z,72.53
2018-04-20T00:09:58.018Z,72.33
2018-04-20T00:10:57.959Z,72.72
2018-04-20T00:11:57.907Z,72.81
2018-04-20T00:12:57.840Z,72.63
2018-04-20T00:13:57.778Z,72.68
2018-04-20T00:14:57.721Z,72.68
2018-04-20T00:15:57.657Z,72.49
2018-04-20T00:16:57.596Z,72.88
2018-04-20T00:17:57.537Z,73.35
2018-04-20T00:18:57.480Z,73.07
2018-04-20T00:19:57.471Z,73.16
2018-04-20T00:20:57.357Z,73.07
2018-04-20T00:21:57.298Z,73.26
2018-04-20T00:22:57.239Z,73.35
2018-04-20T00:23:57.773Z,73.26
2018-04-20T00:24:57.117Z,73.55
2018-04-20T00:25:57.061Z,73.74
2018-04-20T00:26:56.996Z,73.74
2018-04-20T00:27:56.936Z,73.55
2018-04-20T00:28:56.874Z,73.45
2018-04-20T00:29:56.818Z,73.26
2018-04-20T00:30:56.755Z,73.35
2018-04-20T00:31:56.693Z,73.26
2018-04-20T00:32:56.638Z,73.83
2018-04-20T00:33:56.581Z,73.83
2018-04-20T00:34:56.518Z,73.74
2018-04-20T00:35:56.453Z,74.02
2018-04-20T00:36:56.397Z,74.02
2018-04-20T00:37:56.334Z,74.02
2018-04-20T00:38:56.276Z,73.74
2018-04-20T00:39:56.211Z,73.55
2018-04-20T00:40:56.150Z,73.83
2018-04-20T00:41:56.092Z,74.12
2018-04-20T00:42:56.034Z,74.02
2018-04-20T00:43:55.976Z,73.83
2018-04-20T00:44:55.924Z,74.12
2018-04-20T00:45:55.854Z,74.02
2018-04-20T00:46:55.791Z,74.12
2018-04-20T00:47:55.729Z,73.74
2018-04-20T00:48:55.671Z,74.41
2018-04-20T00:49:55.607Z,74.31
2018-04-20T00:50:55.556Z,73.74
2018-04-20T00:51:55.490Z,74.69
2018-04-20T00:52:55.424Z,74.51
2018-04-20T00:53:55.367Z,74.51
2018-04-20T00:54:55.311Z,74.31
2018-04-20T00:55:55.246Z,74.12
2018-04-20T00:56:55.195Z,74.31
2018-04-20T00:57:55.127Z,74.51
2018-04-20T00:58:55.063Z,74.76
2018-04-20T00:59:55.006Z,74.98
2018-04-20T01:00:54.943Z,74.89
2018-04-20T01:01:54.881Z,74.98
2018-04-20T01:02:54.825Z,75.08
2018-04-20T01:03:54.761Z,75.08
2018-04-20T01:04:54.704Z,75.08
2018-04-20T01:05:54.645Z,75.08
2018-04-20T01:06:54.584Z,75.08
2018-04-20T01:07:54.521Z,75.33
2018-04-20T01:08:54.467Z,75.04
2018-04-20T01:09:54.399Z,75.04
2018-04-20T01:10:54.332Z,75.62
2018-04-20T01:11:54.281Z,75.43
2018-04-20T01:12:54.216Z,75.81
2018-04-20T01:13:54.156Z,75.43
2018-04-20T01:14:54.100Z,75.23
2018-04-20T01:15:54.039Z,75.62
2018-04-20T01:16:53.976Z,76.10
2018-04-20T01:17:53.962Z,76.10
2018-04-20T01:18:53.918Z,75.81
2018-04-20T01:19:53.790Z,75.62
2018-04-20T01:20:53.741Z,75.81
2018-04-20T01:21:53.666Z,75.81
2018-04-20T01:22:53.611Z,75.81
2018-04-20T01:23:53.547Z,75.77
2018-04-20T01:24:53.484Z,76.10
2018-04-20T01:25:53.480Z,76.00
2018-04-20T01:26:53.364Z,76.39
2018-04-20T01:27:53.302Z,76.29
2018-04-20T01:28:53.251Z,76.19
2018-04-20T01:29:53.184Z,76.48
2018-04-20T01:30:53.121Z,77.06
2018-04-20T01:31:53.070Z,76.39
2018-04-20T01:32:52.999Z,76.86
2018-04-20T01:33:52.937Z,76.96
2018-04-20T01:34:52.882Z,76.67
2018-04-20T01:35:52.815Z,76.67
2018-04-20T01:36:52.762Z,76.67
2018-04-20T01:37:52.697Z,76.67
2018-04-20T01:38:52.632Z,76.44
2018-04-20T01:39:52.577Z,76.48
2018-04-20T01:40:52.517Z,76.77
2018-04-20T01:41:52.455Z,77.53
2018-04-20T01:42:52.395Z,77.63
2018-04-20T01:43:52.330Z,77.53
2018-04-20T01:44:52.269Z,77.53
2018-04-20T01:45:52.205Z,77.53
2018-04-20T01:46:52.149Z,77.63
2018-04-20T01:47:52.094Z,77.34
2018-04-20T01:48:52.031Z,77.21
2018-04-20T01:49:51.964Z,77.63
2018-04-20T01:50:51.905Z,77.44
2018-04-20T01:51:51.845Z,77.34
2018-04-20T01:52:51.783Z,77.31
2018-04-20T01:53:51.722Z,77.88
2018-04-20T01:54:51.663Z,77.97
2018-04-20T01:55:51.602Z,77.69
2018-04-20T01:56:51.539Z,77.50
2018-04-20T01:57:51.490Z,77.78
2018-04-20T01:58:51.418Z,77.97
2018-04-20T01:59:51.404Z,77.78
2018-04-20T02:00:51.334Z,77.88
2018-04-20T02:01:51.231Z,77.88
2018-04-20T02:02:51.172Z,77.88
2018-04-20T02:03:51.110Z,77.88
2018-04-20T02:04:51.051Z,77.59
2018-04-20T02:05:50.999Z,77.69
2018-04-20T02:06:50.931Z,77.97
2018-04-20T02:07:50.892Z,78.27
2018-04-20T02:08:50.821Z,78.45
2018-04-20T02:09:50.744Z,78.64
2018-04-20T02:10:50.686Z,78.17
2018-04-20T02:11:50.633Z,78.74
2018-04-20T02:12:50.568Z,78.64
2018-04-20T02:13:50.504Z,78.55
2018-04-20T02:14:50.453Z,78.36
2018-04-20T02:15:50.389Z,78.36
2018-04-20T02:16:50.323Z,78.45
2018-04-20T02:17:50.269Z,78.55
2018-04-20T02:18:50.217Z,78.55
2018-04-20T02:19:50.142Z,78.45
2018-04-20T02:20:50.077Z,78.84
2018-04-20T02:21:50.015Z,78.55
2018-04-20T02:22:49.953Z,78.17
2018-04-20T02:23:49.890Z,78.36
2018-04-20T02:24:49.836Z,78.17
2018-04-20T02:25:49.778Z,78.27
2018-04-20T02:26:49.712Z,78.36
2018-04-20T02:27:49.651Z,78.17
2018-04-20T02:28:49.595Z,78.17
2018-04-20T02:29:49.520Z,78.17
2018-04-20T02:30:49.468Z,78.36
2018-04-20T02:31:49.409Z,78.55
2018-04-20T02:32:49.344Z,78.45
2018-04-20T02:33:49.286Z,79.13
2018-04-20T02:34:49.220Z,79.22
2018-04-20T02:35:49.165Z,79.22
2018-04-20T02:36:49.103Z,79.03
2018-04-20T02:37:49.035Z,79.03
2018-04-20T02:38:48.988Z,79.03
2018-04-20T02:39:48.918Z,79.51
2018-04-20T02:40:48.854Z,79.41
2018-04-20T02:41:48.799Z,79.51
2018-04-20T02:42:48.737Z,79.03
2018-04-20T02:43:48.670Z,79.22
2018-04-20T02:44:48.612Z,79.22
2018-04-20T02:45:48.548Z,79.13
2018-04-20T02:46:48.487Z,79.32
2018-04-20T02:47:48.452Z,79.32
2018-04-20T02:48:48.371Z,79.32
2018-04-20T02:49:48.303Z,79.22
2018-04-20T02:50:48.246Z,79.13
2018-04-20T02:51:48.182Z,79.22
2018-04-20T02:52:48.123Z,79.13
2018-04-20T02:53:48.061Z,79.13
2018-04-20T02:54:47.995Z,79.51
2018-04-20T02:55:47.937Z,79.22
2018-04-20T02:56:47.878Z,79.41
2018-04-20T02:57:47.816Z,79.32
2018-04-20T02:58:47.752Z,80.08
2018-04-20T02:59:47.699Z,79.89
2018-04-20T03:00:47.626Z,79.32
2018-04-20T03:01:47.568Z,80.04
2018-04-20T03:02:47.509Z,79.89
2018-04-20T03:03:47.511Z,79.70
2018-04-20T03:04:47.387Z,79.75
2018-04-20T03:05:47.332Z,79.66
2018-04-20T03:06:47.260Z,79.70
2018-04-20T03:07:47.201Z,79.75
2018-04-20T03:08:47.136Z,80.14
2018-04-20T03:09:47.080Z,80.62
2018-04-20T03:10:47.021Z,80.33
2018-04-20T03:11:46.953Z,80.52
2018-04-20T03:12:46.896Z,80.24
2018-04-20T03:13:46.836Z,80.14
2018-04-20T03:14:46.767Z,80.33
2018-04-20T03:15:46.709Z,80.24
2018-04-20T03:16:46.648Z,80.14
2018-04-20T03:17:46.587Z,80.90
2018-04-20T03:18:46.530Z,80.90
2018-04-20T03:19:46.462Z,80.81
2018-04-20T03:20:46.400Z,80.81
2018-04-20T03:21:46.340Z,81.00
2018-04-20T03:22:46.278Z,80.90
2018-04-20T03:23:46.219Z,80.90
2018-04-20T03:24:46.158Z,80.90
2018-04-20T03:25:46.096Z,80.90
2018-04-20T03:26:46.033Z,81.00
2018-04-20T03:27:45.970Z,80.24
2018-04-20T03:28:45.911Z,80.52
2018-04-20T03:29:45.852Z,80.87
2018-04-20T03:30:45.794Z,81.54
2018-04-20T03:31:45.728Z,81.29
2018-04-20T03:32:45.666Z,81.29
2018-04-20T03:33:45.611Z,81.48
2018-04-20T03:34:45.543Z,81.57
2018-04-20T03:35:45.483Z,81.38
2018-04-20T03:36:45.421Z,80.81
2018-04-20T03:37:45.356Z,81.29
2018-04-20T03:38:45.306Z,81.00
2018-04-20T03:39:45.233Z,81.00
2018-04-20T03:40:45.175Z,81.48
2018-04-20T03:41:45.113Z,81.48
2018-04-20T03:42:45.057Z,81.48
2018-04-20T03:43:44.996Z,81.48
2018-04-20T03:44:44.928Z,81.20
2018-04-20T03:45:44.866Z,81.20
2018-04-20T03:46:44.805Z,81.57
2018-04-20T03:47:44.744Z,81.48
2018-04-20T03:48:44.683Z,81.86
2018-04-20T03:49:44.618Z,81.57
2018-04-20T03:50:44.559Z,81.48
2018-04-20T03:51:44.496Z,81.86
2018-04-20T03:52:44.442Z,81.86
2018-04-20T03:53:44.401Z,81.57
2018-04-20T03:54:44.307Z,81.86
2018-04-20T03:55:44.249Z,81.38
2018-04-20T03:56:44.204Z,81.29
2018-04-20T03:57:44.124Z,81.67
2018-04-20T03:58:44.065Z,81.38
2018-04-20T03:59:44.004Z,81.57
2018-04-20T04:00:43.943Z,81.38
2018-04-20T04:01:43.881Z,81.57
2018-04-20T04:02:43.830Z,81.48
2018-04-20T04:03:43.756Z,81.92
2018-04-20T04:04:43.707Z,82.30
2018-04-20T04:05:43.684Z,82.20
2018-04-20T04:06:43.570Z,82.87
2018-04-20T04:07:43.511Z,82.20
2018-04-20T04:08:43.442Z,82.20
2018-04-20T04:09:43.384Z,82.40
2018-04-20T04:10:43.342Z,82.68
2018-04-20T04:11:43.266Z,82.78
2018-04-20T04:12:43.198Z,82.78
2018-04-20T04:13:43.143Z,82.30
2018-04-20T04:14:43.076Z,82.78
2018-04-20T04:15:43.014Z,82.59
2018-04-20T04:16:42.958Z,82.30
2018-04-20T04:17:42.892Z,82.40
2018-04-20T04:18:42.830Z,82.87
2018-04-20T04:19:42.774Z,83.16
2018-04-20T04:20:42.703Z,82.87
2018-04-20T04:21:42.642Z,83.16
2018-04-20T04:22:42.585Z,82.97
2018-04-20T04:23:42.519Z,82.97
2018-04-20T04:24:42.461Z,83.36
2018-04-20T04:25:42.398Z,83.26
2018-04-20T04:26:42.334Z,82.87
2018-04-20T04:27:42.283Z,83.06
2018-04-20T04:28:42.211Z,82.87
2018-04-20T04:29:42.155Z,83.45
2018-04-20T04:30:42.098Z,83.06
2018-04-20T04:31:42.036Z,83.36
2018-04-20T04:32:41.970Z,82.78
2018-04-20T04:33:41.926Z,82.97
2018-04-20T04:34:41.851Z,82.87
2018-04-20T04:35:41.781Z,82.97
2018-04-20T04:36:41.722Z,83.06
2018-04-20T04:37:41.658Z,82.97
2018-04-20T04:38:41.592Z,82.49
2018-04-20T04:39:41.531Z,83.06
2018-04-20T04:40:41.470Z,83.06
2018-04-20T04:41:41.407Z,82.59
2018-04-20T04:42:41.355Z,82.49
2018-04-20T04:43:41.284Z,82.73
2018-04-20T04:44:41.235Z,82.30
2018-04-20T04:45:41.165Z,82.43
2018-04-20T04:46:41.104Z,82.59
2018-04-20T04:47:41.038Z,82.78
2018-04-20T04:48:40.973Z,82.43
2018-04-20T04:49:40.916Z,82.11
2018-04-20T04:50:40.862Z,82.24
2018-04-20T04:51:40.792Z,82.15
2018-04-20T04:52:40.729Z,82.15
2018-04-20T04:53:40.668Z,82.34
2018-04-20T04:54:40.602Z,82.06
2018-04-20T04:55:40.546Z,82.15
2018-04-20T04:56:40.484Z,82.24
2018-04-20T04:57:40.421Z,82.06
2018-04-20T04:58:40.361Z,82.34
2018-04-20T04:59:40.295Z,82.24
2018-04-20T05:00:40.238Z,82.15
2018-04-20T05:01:40.171Z,82.53
2018-04-20T05:02:40.109Z,82.34
2018-04-20T05:03:40.051Z,81.92
2018-04-20T05:04:39.991Z,82.06
2018-04-20T05:05:39.926Z,82.53
2018-04-20T05:06:39.861Z,82.53
2018-04-20T05:07:39.809Z,81.86
2018-04-20T05:08:39.742Z,81.67
2018-04-20T05:09:39.674Z,81.38
2018-04-20T05:10:39.620Z,82.06
2018-04-20T05:11:39.559Z,81.67
2018-04-20T05:12:39.496Z,81.48
2018-04-20T05:13:39.430Z,81.57
2018-04-20T05:14:39.375Z,81.57
2018-04-20T05:15:39.309Z,81.67
2018-04-20T05:16:39.248Z,81.86
2018-04-20T05:17:39.190Z,81.77
2018-04-20T05:18:39.130Z,81.67
2018-04-20T05:19:39.060Z,81.86
2018-04-20T05:20:39.012Z,82.00
2018-04-20T05:21:38.940Z,81.48
2018-04-20T05:22:38.880Z,81.52
2018-04-20T05:23:38.817Z,81.04
2018-04-20T05:24:38.759Z,81.13
2018-04-20T05:25:38.690Z,81.43
2018-04-20T05:26:38.635Z,81.23
2018-04-20T05:27:38.573Z,81.00
2018-04-20T05:28:38.511Z,81.04
2018-04-20T05:29:38.452Z,81.04
2018-04-20T05:30:38.387Z,81.43
2018-04-20T05:31:38.322Z,81.52
2018-04-20T05:32:38.260Z,81.13
2018-04-20T05:33:38.208Z,81.04
2018-04-20T05:34:38.141Z,81.13
2018-04-20T05:35:38.078Z,81.04
2018-04-20T05:36:38.023Z,81.04
2018-04-20T05:37:37.958Z,81.13
2018-04-20T05:38:37.897Z,81.43
2018-04-20T05:39:37.829Z,81.33
2018-04-20T05:40:37.803Z,80.76
2018-04-20T05:41:37.712Z,80.56
2018-04-20T05:42:37.645Z,80.56
2018-04-20T05:43:37.596Z,80.76
2018-04-20T05:44:37.527Z,80.99
2018-04-20T05:45:37.466Z,80.51
2018-04-20T05:46:37.407Z,80.08
2018-04-20T05:47:37.341Z,80.32
2018-04-20T05:48:37.291Z,80.41
2018-04-20T05:49:37.221Z,80.47
2018-04-20T05:50:37.160Z,80.12
2018-04-20T05:51:37.102Z,80.51
2018-04-20T05:52:37.038Z,80.12
2018-04-20T05:53:36.980Z,80.22
2018-04-20T05:54:36.923Z,80.03
2018-04-20T05:55:36.876Z,80.32
2018-04-20T05:56:36.793Z,80.70
2018-04-20T05:57:36.727Z,80.32
2018-04-20T05:58:36.675Z,80.22
2018-04-20T05:59:36.612Z,79.83
2018-04-20T06:00:36.553Z,80.12
2018-04-20T06:01:36.491Z,79.93
2018-04-20T06:02:36.426Z,79.83
2018-04-20T06:03:36.368Z,79.83
2018-04-20T06:04:36.305Z,80.16
2018-04-20T06:05:36.249Z,79.68
2018-04-20T06:06:36.208Z,79.59
2018-04-20T06:07:36.128Z,79.01
2018-04-20T06:08:36.068Z,79.21
2018-04-20T06:09:36.002Z,79.21
2018-04-20T06:10:35.942Z,79.11
2018-04-20T06:11:35.887Z,79.01
2018-04-20T06:12:35.822Z,79.49
2018-04-20T06:13:35.762Z,79.39
2018-04-20T06:14:35.699Z,79.30
2018-04-20T06:15:35.638Z,79.11
2018-04-20T06:16:35.578Z,79.21
2018-04-20T06:17:35.516Z,79.68
2018-04-20T06:18:35.463Z,79.11
2018-04-20T06:19:35.401Z,78.92
2018-04-20T06:20:35.338Z,79.21
2018-04-20T06:21:35.278Z,79.01
2018-04-20T06:22:35.211Z,78.72
2018-04-20T06:23:35.152Z,78.86
2018-04-20T06:24:35.095Z,78.47
2018-04-20T06:25:35.035Z,78.67
2018-04-20T06:26:34.976Z,78.86
2018-04-20T06:27:34.927Z,78.63
2018-04-20T06:28:34.850Z,78.72
2018-04-20T06:29:34.796Z,79.01
2018-04-20T06:30:34.739Z,79.01
2018-04-20T06:31:34.672Z,78.72
2018-04-20T06:32:34.618Z,78.77
2018-04-20T06:33:34.557Z,78.47
2018-04-20T06:34:34.494Z,78.57
2018-04-20T06:35:34.432Z,78.47
2018-04-20T06:36:34.370Z,78.57
2018-04-20T06:37:34.319Z,78.38
2018-04-20T06:38:34.251Z,78.96
2018-04-20T06:39:34.197Z,78.47
2018-04-20T06:40:34.131Z,78.19
2018-04-20T06:41:34.084Z,78.23
2018-04-20T06:42:34.009Z,77.65
2018-04-20T06:43:33.947Z,77.94
2018-04-20T06:44:33.897Z,78.13
2018-04-20T06:45:33.840Z,77.94
2018-04-20T06:46:33.770Z,77.84
2018-04-20T06:47:33.704Z,77.56
2018-04-20T06:48:34.394Z,77.46
2018-04-20T06:49:33.596Z,77.56
2018-04-20T06:50:33.531Z,77.69
2018-04-20T06:51:33.470Z,76.82
2018-04-20T06:52:33.414Z,76.64
2018-04-20T06:53:33.352Z,76.44
2018-04-20T06:54:33.292Z,76.25
2018-04-20T06:55:33.238Z,76.67
2018-04-20T06:56:33.178Z,76.29
2018-04-20T06:57:33.114Z,75.81
2018-04-20T06:58:33.052Z,75.90
2018-04-20T06:59:33.004Z,76.39
2018-04-20T07:00:32.935Z,76.00
2018-04-20T07:01:32.875Z,76.48
2018-04-20T07:02:32.816Z,76.29
2018-04-20T07:03:32.760Z,75.46
2018-04-20T07:04:32.693Z,75.71
2018-04-20T07:05:32.638Z,75.75
2018-04-20T07:06:32.573Z,75.07
2018-04-20T07:07:32.519Z,75.07
2018-04-20T07:08:32.457Z,75.17
2018-04-20T07:09:32.398Z,75.17
2018-04-20T07:10:32.343Z,74.69
2018-04-20T07:11:32.288Z,74.79
2018-04-20T07:12:32.222Z,74.60
2018-04-20T07:13:32.171Z,73.92
2018-04-20T07:14:32.102Z,73.92
2018-04-20T07:15:32.051Z,73.73
2018-04-20T07:16:31.986Z,74.02
2018-04-20T07:17:31.936Z,74.40
2018-04-20T07:18:31.868Z,74.05
2018-04-20T07:19:31.808Z,73.67
2018-04-20T07:20:31.750Z,73.96
2018-04-20T07:21:31.693Z,73.47
2018-04-20T07:22:31.631Z,73.57
2018-04-20T07:23:31.576Z,73.67
2018-04-20T07:24:31.518Z,73.28
2018-04-20T07:25:31.460Z,72.80
2018-04-20T07:26:31.401Z,72.94
2018-04-20T07:27:31.343Z,72.84
2018-04-20T07:28:31.278Z,73.13
2018-04-20T07:29:31.227Z,72.55
2018-04-20T07:30:31.172Z,72.26
2018-04-20T07:31:31.112Z,72.45
2018-04-20T07:32:31.053Z,72.65
2018-04-20T07:33:30.987Z,72.65
2018-04-20T07:34:30.930Z,72.17
2018-04-20T07:35:30.877Z,72.17
2018-04-20T07:36:30.818Z,72.07
2018-04-20T07:37:30.789Z,72.26
2018-04-20T07:38:30.700Z,72.07
2018-04-20T07:39:30.650Z,71.49
2018-04-20T07:40:30.585Z,72.26
2018-04-20T07:41:30.567Z,71.30
2018-04-20T07:42:30.470Z,72.07
2018-04-20T07:43:30.412Z,72.07
2018-04-20T07:44:30.416Z,71.40
2018-04-20T07:45:30.298Z,71.78
2018-04-20T07:46:30.238Z,71.30
2018-04-20T07:47:30.192Z,70.92
2018-04-20T07:48:30.132Z,71.40
2018-04-20T07:49:30.063Z,71.34
2018-04-20T07:50:30.002Z,71.04
2018-04-20T07:51:29.940Z,71.14
2018-04-20T07:52:29.891Z,71.53
2018-04-20T07:53:29.829Z,70.28
2018-04-20T07:54:29.811Z,70.37
2018-04-20T07:55:29.716Z,70.28
2018-04-20T07:56:29.656Z,70.86
2018-04-20T07:57:29.605Z,69.79
2018-04-20T07:58:29.542Z,70.09
2018-04-20T07:59:29.485Z,70.37
2018-04-20T08:00:29.426Z,70.09
2018-04-20T08:01:29.368Z,70.18
2018-04-20T08:02:29.323Z,69.99
2018-04-20T08:03:29.253Z,70.09
2018-04-20T08:04:29.195Z,69.89
2018-04-20T08:05:29.141Z,70.18
2018-04-20T08:06:29.104Z,69.93
2018-04-20T08:07:29.025Z,69.54
2018-04-20T08:08:28.969Z,69.45
2018-04-20T08:09:28.905Z,69.45
2018-04-20T08:10:28.847Z,69.73
2018-04-20T08:11:28.790Z,69.54
2018-04-20T08:12:28.735Z,69.64
2018-04-20T08:13:28.678Z,69.54
2018-04-20T08:14:28.618Z,69.25
2018-04-20T08:15:28.591Z,69.54
2018-04-20T08:16:28.503Z,69.64
2018-04-20T08:17:28.452Z,69.54
2018-04-20T08:18:28.387Z,69.83
2018-04-20T08:19:28.335Z,69.45
2018-04-20T08:20:28.275Z,69.45
2018-04-20T08:21:28.219Z,68.96
2018-04-20T08:22:34.939Z,69.25
2018-04-20T08:23:28.101Z,68.48
2018-04-20T08:24:28.073Z,68.90
2018-04-20T08:25:27.984Z,67.84
2018-04-20T08:26:27.971Z,67.94
2018-04-20T08:27:27.876Z,67.55
2018-04-20T08:28:27.819Z,67.55
2018-04-20T08:29:27.761Z,67.36
2018-04-20T08:30:27.702Z,66.59
2018-04-20T08:31:27.645Z,65.91
2018-04-20T08:32:27.583Z,66.14
2018-04-20T08:33:27.539Z,65.95
2018-04-20T08:34:27.473Z,65.95
2018-04-20T08:35:30.415Z,65.66
2018-04-20T08:36:27.369Z,65.47
2018-04-20T08:37:27.309Z,65.27
2018-04-20T08:38:27.242Z,65.17
2018-04-20T08:39:27.216Z,65.08
2018-04-20T08:40:27.130Z,65.08
2018-04-20T08:41:27.079Z,64.50
2018-04-20T08:42:27.023Z,64.59
2018-04-20T08:43:26.956Z,64.21
2018-04-20T08:44:26.900Z,63.82
2018-04-20T08:45:26.851Z,64.02
2018-04-20T08:46:26.785Z,64.31
2018-04-20T08:47:26.728Z,64.02
2018-04-20T08:48:26.671Z,63.92
2018-04-20T08:49:26.628Z,63.63
2018-04-20T08:50:26.575Z,64.02
2018-04-20T08:51:26.505Z,63.63
2018-04-20T08:52:26.446Z,63.44
2018-04-20T08:53:26.396Z,63.44
2018-04-20T08:54:26.332Z,63.24
2018-04-20T08:55:26.271Z,63.44
2018-04-20T08:56:26.220Z,62.89
2018-04-20T08:57:26.162Z,62.96
2018-04-20T08:58:26.102Z,62.48
2018-04-20T08:59:26.058Z,62.79
2018-04-20T09:00:26.001Z,62.22
2018-04-20T09:01:25.956Z,62.51
2018-04-20T09:02:25.876Z,62.51
2018-04-20T09:03:25.816Z,62.31
2018-04-20T09:04:25.768Z,62.31
2018-04-20T09:05:25.709Z,62.41
2018-04-20T09:06:25.650Z,61.64
2018-04-20T09:07:25.594Z,61.83
2018-04-20T09:08:25.572Z,61.35
2018-04-20T09:09:25.473Z,61.54
2018-04-20T09:10:25.423Z,61.74
2018-04-20T09:11:25.363Z,61.44
2018-04-20T09:12:25.308Z,60.96
2018-04-20T09:13:25.274Z,61.16
2018-04-20T09:14:25.191Z,61.09
2018-04-20T09:15:25.139Z,60.99
2018-04-20T09:16:25.091Z,61.06
2018-04-20T09:17:25.016Z,60.86
2018-04-20T09:18:24.972Z,61.06
2018-04-20T09:19:24.915Z,60.96
2018-04-20T09:20:24.853Z,61.06
2018-04-20T09:21:24.793Z,60.86
2018-04-20T09:22:24.735Z,61.44
2018-04-20T09:23:24.698Z,61.19
2018-04-20T09:24:24.655Z,60.77
2018-04-20T09:25:24.569Z,60.80
2018-04-20T09:26:24.510Z,60.80
2018-04-20T09:27:24.458Z,61.09
2018-04-20T09:28:24.399Z,60.03
2018-04-20T09:29:24.928Z,60.03
2018-04-20T09:30:24.286Z,59.83
2018-04-20T09:31:24.230Z,59.25
2018-04-20T09:32:24.177Z,59.09
2018-04-20T09:33:24.117Z,58.90
2018-04-20T09:34:24.082Z,59.00
2018-04-20T09:35:24.003Z,58.87
2018-04-20T09:36:23.958Z,59.38
2018-04-20T09:37:23.887Z,58.77
2018-04-20T09:38:23.837Z,58.77
2018-04-20T09:39:23.784Z,58.51
2018-04-20T09:40:23.719Z,59.38
2018-04-20T09:41:23.665Z,59.09
2018-04-20T09:42:23.610Z,58.54
2018-04-20T09:43:23.570Z,58.15
2018-04-20T09:44:23.497Z,58.25
2018-04-20T09:45:23.440Z,58.15
2018-04-20T09:46:23.930Z,58.15
2018-04-20T09:47:23.326Z,57.45
2018-04-20T09:48:23.273Z,57.35
2018-04-20T09:49:23.210Z,57.16
2018-04-20T09:50:23.163Z,56.80
2018-04-20T09:51:23.149Z,56.71
2018-04-20T09:52:23.057Z,55.55
2018-04-20T09:53:22.991Z,54.97
2018-04-20T09:54:22.942Z,54.77
2018-04-20T09:55:22.879Z,53.74
2018-04-20T09:56:22.821Z,53.06
2018-04-20T09:57:22.770Z,53.06
2018-04-20T09:58:22.757Z,51.71
2018-04-20T09:59:22.651Z,51.13
2018-04-20T10:00:22.607Z,50.65
2018-04-20T10:01:22.544Z,50.07
2018-04-20T10:02:22.489Z,49.49
2018-04-20T10:03:22.433Z,49.00
2018-04-20T10:04:22.379Z,48.71
2018-04-20T10:05:22.331Z,48.54
2018-04-20T10:06:22.349Z,48.42
2018-04-20T10:07:22.213Z,48.52
2018-04-20T10:08:22.151Z,48.61
2018-04-20T10:09:22.109Z,47.74
2018-04-20T10:10:22.043Z,47.84
2018-04-20T10:11:21.986Z,47.36
2018-04-20T10:12:21.929Z,46.97
2018-04-20T10:13:21.874Z,46.88
2018-04-20T10:14:21.839Z,47.36
2018-04-20T10:15:21.764Z,46.20
2018-04-20T10:16:21.709Z,46.20
2018-04-20T10:17:21.653Z,46.12
2018-04-20T10:18:21.594Z,46.10
2018-04-20T10:19:21.538Z,46.22
2018-04-20T10:20:21.493Z,45.93
2018-04-20T10:21:21.431Z,45.74
2018-04-20T10:22:21.393Z,45.54
2018-04-20T10:23:21.323Z,45.93
2018-04-20T10:24:21.263Z,45.74
2018-04-20T10:25:21.205Z,46.03
2018-04-20T10:26:21.152Z,45.83
2018-04-20T10:27:21.116Z,46.20
2018-04-20T10:28:21.042Z,46.22
2018-04-20T10:29:20.981Z,45.74
2018-04-20T10:30:20.935Z,45.83
2018-04-20T10:31:20.870Z,45.74
2018-04-20T10:32:20.815Z,45.93
2018-04-20T10:33:20.769Z,46.12
2018-04-20T10:34:20.710Z,46.12
2018-04-20T10:35:20.654Z,45.54
2018-04-20T10:36:20.598Z,45.25
2018-04-20T10:37:20.544Z,45.06
2018-04-20T10:38:20.487Z,45.57
2018-04-20T10:39:20.427Z,44.98
2018-04-20T10:40:20.370Z,45.28
2018-04-20T10:41:20.317Z,45.18
2018-04-20T10:42:20.287Z,44.98
2018-04-20T10:43:20.233Z,44.98
2018-04-20T10:44:20.155Z,44.70
2018-04-20T10:45:20.095Z,44.70
2018-04-20T10:46:20.057Z,44.21
2018-04-20T10:47:19.983Z,44.31
2018-04-20T10:48:19.930Z,43.63
2018-04-20T10:49:19.893Z,43.92
2018-04-20T10:50:19.823Z,43.34
2018-04-20T10:51:19.763Z,43.05
2018-04-20T10:52:19.710Z,42.86
2018-04-20T10:53:19.651Z,42.49
2018-04-20T10:54:19.621Z,42.20
2018-04-20T10:55:19.541Z,41.82
2018-04-20T10:56:19.489Z,42.10
2018-04-20T10:57:19.435Z,42.20
2018-04-20T10:58:19.376Z,41.82
2018-04-20T10:59:19.322Z,41.42
2018-04-20T11:00:19.275Z,41.45
2018-04-20T11:01:19.217Z,41.16
2018-04-20T11:02:19.155Z,40.96
2018-04-20T11:03:19.105Z,40.96
2018-04-20T11:04:19.044Z,40.48
2018-04-20T11:05:18.993Z,40.86
2018-04-20T11:06:18.941Z,40.67
2018-04-20T11:07:18.888Z,40.28
2018-04-20T11:08:18.836Z,40.21
2018-04-20T11:09:18.778Z,39.62
2018-04-20T11:10:18.726Z,39.53
2018-04-20T11:11:18.675Z,39.72
2018-04-20T11:12:18.618Z,39.34
2018-04-20T11:13:18.562Z,39.62
2018-04-20T11:14:18.522Z,39.24
2018-04-20T11:15:18.458Z,39.04
2018-04-20T11:16:18.408Z,39.34
2018-04-20T11:17:18.362Z,39.24
2018-04-20T11:18:18.305Z,39.34
2018-04-20T11:19:18.250Z,39.34
2018-04-20T11:20:18.226Z,39.04
2018-04-20T11:21:18.160Z,39.43
2018-04-20T11:22:18.093Z,38.85
2018-04-20T11:23:18.042Z,38.85
2018-04-20T11:24:17.995Z,38.58
2018-04-20T11:25:17.945Z,38.29
2018-04-20T11:26:17.900Z,38.09
2018-04-20T11:27:17.846Z,37.81
2018-04-20T11:28:17.797Z,37.71
2018-04-20T11:29:17.745Z,37.82
2018-04-20T11:30:17.695Z,37.53
2018-04-20T11:31:17.644Z,37.05
2018-04-20T11:32:17.609Z,36.85
2018-04-20T11:33:17.551Z,36.97
2018-04-20T11:34:17.504Z,36.77
2018-04-20T11:35:17.452Z,36.48
2018-04-20T11:36:17.404Z,36.68
2018-04-20T11:37:17.355Z,36.58
2018-04-20T11:38:17.308Z,36.10
2018-04-20T11:39:17.260Z,36.29
2018-04-20T11:40:17.211Z,35.90
2018-04-20T11:41:17.169Z,35.82
2018-04-20T11:42:17.122Z,35.82
2018-04-20T11:43:17.070Z,35.43
2018-04-20T11:44:17.024Z,35.43
2018-04-20T11:45:16.988Z,35.16
2018-04-20T11:46:16.938Z,35.25
2018-04-20T11:47:16.939Z,35.06
2018-04-20T11:48:16.853Z,35.45
2018-04-20T11:49:16.797Z,35.45
2018-04-20T11:50:16.753Z,34.77
2018-04-20T11:51:16.710Z,34.77
2018-04-20T11:52:16.704Z,34.48
2018-04-20T11:53:16.626Z,34.28
2018-04-20T11:54:16.575Z,34.30
2018-04-20T11:55:16.535Z,34.59
2018-04-20T11:56:16.492Z,34.20
2018-04-20T11:57:16.448Z,34.30
2018-04-20T11:58:16.401Z,33.91
2018-04-20T11:59:16.356Z,33.72
2018-04-20T12:00:16.313Z,33.62
2018-04-20T12:01:16.266Z,33.33
2018-04-20T12:02:16.233Z,32.94
2018-04-20T12:03:16.181Z,33.06
2018-04-20T12:04:16.139Z,33.06
2018-04-20T12:05:16.093Z,32.76
2018-04-20T12:06:16.057Z,32.76
2018-04-20T12:07:16.007Z,32.68
2018-04-20T12:08:15.963Z,32.59
2018-04-20T12:09:15.919Z,32.49
2018-04-20T12:10:15.882Z,32.21
2018-04-20T12:11:15.833Z,32.29
2018-04-20T12:12:15.793Z,32.50
2018-04-20T12:13:15.750Z,32.02
2018-04-20T12:14:15.710Z,32.50
2018-04-20T12:15:15.666Z,32.02
2018-04-20T12:16:15.625Z,31.92
2018-04-20T12:17:15.583Z,31.64
2018-04-20T12:18:15.536Z,31.25
2018-04-20T12:19:15.496Z,31.74
2018-04-20T12:20:15.457Z,31.25
2018-04-20T12:21:15.447Z,30.96
2018-04-20T12:22:15.369Z,31.07
2018-04-20T12:23:15.326Z,30.98
2018-04-20T12:24:15.281Z,30.96
2018-04-20T12:25:15.259Z,30.47
2018-04-20T12:26:15.209Z,30.58
2018-04-20T12:27:15.174Z,30.58
2018-04-20T12:28:15.124Z,30.58
2018-04-20T12:29:15.076Z,30.78
2018-04-20T12:30:15.033Z,30.60
2018-04-20T12:31:14.991Z,30.51
2018-04-20T12:32:14.944Z,30.41
2018-04-20T12:33:14.905Z,30.41
2018-04-20T12:34:14.867Z,30.11
2018-04-20T12:35:14.825Z,29.93
2018-04-20T12:36:14.780Z,29.93
2018-04-20T12:37:14.734Z,29.44
2018-04-20T12:38:14.704Z,29.06
2018-04-20T12:39:14.665Z,29.15
2018-04-20T12:40:14.615Z,28.67
2018-04-20T12:41:14.583Z,29.06
2018-04-20T12:42:14.529Z,29.15
2018-04-20T12:43:14.487Z,28.39
2018-04-20T12:44:14.512Z,28.68
2018-04-20T12:45:14.404Z,28.39
2018-04-20T12:46:14.361Z,28.49
2018-04-20T12:47:14.329Z,27.80
2018-04-20T12:48:14.280Z,27.52
2018-04-20T12:49:14.243Z,27.51
2018-04-20T12:50:14.197Z,27.80
2018-04-20T12:51:14.174Z,27.72
2018-04-20T12:52:14.115Z,27.70